sensor_id;sensor_type;location;lat;lon;timestamp;temperature;humidity
25360;DHT22;13311;51.386;0.016;2023-03-09T00:03:31;5.50;99.90
25360;DHT22;13311;51.386;0.016;2023-03-09T00:08:31;5.50;99.90
25360;DHT22;13311;51.386;0.016;2023-03-09T00:13:34;5.50;99.90
25360;DHT22;13311;51.386;0.016;2023-03-09T00:18:36;5.60;99.90
25360;DHT22;13311;51.386;0.016;2023-03-09T00:23:36;5.60;99.90
25360;DHT22;13311;51.386;0.016;2023-03-09T00:28:37;5.50;99.90
25360;DHT22;13311;51.386;0.016;2023-03-09T00:33:39;5.50;99.90
25360;DHT22;13311;51.386;0.016;2023-03-09T00:38:40;5.70;99.90
25360;DHT22;13311;51.386;0.016;2023-03-09T00:43:41;5.60;99.90
25360;DHT22;13311;51.386;0.016;2023-03-09T00:48:42;5.70;99.90
25360;DHT22;13311;51.386;0.016;2023-03-09T00:53:43;5.60;99.90
25360;DHT22;13311;51.386;0.016;2023-03-09T00:58:43;5.60;99.90
25360;DHT22;13311;51.386;0.016;2023-03-09T01:03:45;5.60;99.90
25360;DHT22;13311;51.386;0.016;2023-03-09T01:08:46;5.50;99.90
25360;DHT22;13311;51.386;0.016;2023-03-09T01:13:47;5.50;99.90
25360;DHT22;13311;51.386;0.016;2023-03-09T01:18:48;5.50;99.90
25360;DHT22;13311;51.386;0.016;2023-03-09T01:23:49;5.50;99.90
25360;DHT22;13311;51.386;0.016;2023-03-09T01:28:50;5.50;99.90
25360;DHT22;13311;51.386;0.016;2023-03-09T01:33:54;5.50;99.90
25360;DHT22;13311;51.386;0.016;2023-03-09T01:38:55;5.50;99.90
25360;DHT22;13311;51.386;0.016;2023-03-09T01:43:56;5.70;99.90
25360;DHT22;13311;51.386;0.016;2023-03-09T01:54:08;5.70;99.90
25360;DHT22;13311;51.386;0.016;2023-03-09T01:59:12;5.70;99.90
25360;DHT22;13311;51.386;0.016;2023-03-09T02:04:18;5.70;99.90
25360;DHT22;13311;51.386;0.016;2023-03-09T02:09:37;5.60;99.90
25360;DHT22;13311;51.386;0.016;2023-03-09T02:14:41;5.60;99.90
25360;DHT22;13311;51.386;0.016;2023-03-09T02:30:22;5.70;99.90
25360;DHT22;13311;51.386;0.016;2023-03-09T02:35:25;5.60;99.90
25360;DHT22;13311;51.386;0.016;2023-03-09T02:45:38;5.70;99.90
25360;DHT22;13311;51.386;0.016;2023-03-09T02:50:40;5.70;99.90
25360;DHT22;13311;51.386;0.016;2023-03-09T02:55:41;5.70;99.90
25360;DHT22;13311;51.386;0.016;2023-03-09T03:00:41;5.80;99.90
25360;DHT22;13311;51.386;0.016;2023-03-09T03:05:42;5.80;99.90
25360;DHT22;13311;51.386;0.016;2023-03-09T03:10:43;5.80;99.90
25360;DHT22;13311;51.386;0.016;2023-03-09T03:15:44;5.90;99.90
25360;DHT22;13311;51.386;0.016;2023-03-09T03:20:44;6.00;99.90
25360;DHT22;13311;51.386;0.016;2023-03-09T03:25:45;5.90;99.90
25360;DHT22;13311;51.386;0.016;2023-03-09T03:30:50;5.90;99.90
25360;DHT22;13311;51.386;0.016;2023-03-09T03:35:52;5.90;99.90
25360;DHT22;13311;51.386;0.016;2023-03-09T03:40:52;6.00;99.90
25360;DHT22;13311;51.386;0.016;2023-03-09T03:45:53;6.00;99.90
25360;DHT22;13311;51.386;0.016;2023-03-09T03:50:54;6.00;99.90
25360;DHT22;13311;51.386;0.016;2023-03-09T03:55:55;6.00;99.90
25360;DHT22;13311;51.386;0.016;2023-03-09T04:00:56;6.10;99.90
25360;DHT22;13311;51.386;0.016;2023-03-09T04:05:57;6.20;99.90
25360;DHT22;13311;51.386;0.016;2023-03-09T04:10:58;6.20;99.90
25360;DHT22;13311;51.386;0.016;2023-03-09T04:16:00;6.10;99.90
25360;DHT22;13311;51.386;0.016;2023-03-09T04:21:01;6.20;99.90
25360;DHT22;13311;51.386;0.016;2023-03-09T04:26:04;6.20;99.90
25360;DHT22;13311;51.386;0.016;2023-03-09T04:31:05;6.20;99.90
25360;DHT22;13311;51.386;0.016;2023-03-09T04:36:07;6.10;99.90
25360;DHT22;13311;51.386;0.016;2023-03-09T04:41:11;6.20;99.90
25360;DHT22;13311;51.386;0.016;2023-03-09T04:46:12;6.20;99.90
25360;DHT22;13311;51.386;0.016;2023-03-09T04:51:13;6.20;99.90
25360;DHT22;13311;51.386;0.016;2023-03-09T04:56:14;6.20;99.90
25360;DHT22;13311;51.386;0.016;2023-03-09T05:01:15;6.20;99.90
25360;DHT22;13311;51.386;0.016;2023-03-09T05:06:16;6.20;99.90
25360;DHT22;13311;51.386;0.016;2023-03-09T05:11:16;6.20;99.90
25360;DHT22;13311;51.386;0.016;2023-03-09T05:16:17;6.20;99.90
25360;DHT22;13311;51.386;0.016;2023-03-09T05:21:18;6.30;99.90
25360;DHT22;13311;51.386;0.016;2023-03-09T05:26:19;6.30;99.90
25360;DHT22;13311;51.386;0.016;2023-03-09T05:31:20;6.20;99.90
25360;DHT22;13311;51.386;0.016;2023-03-09T05:36:25;6.10;99.90
25360;DHT22;13311;51.386;0.016;2023-03-09T05:41:26;6.20;99.90
25360;DHT22;13311;51.386;0.016;2023-03-09T05:46:27;6.20;99.90
25360;DHT22;13311;51.386;0.016;2023-03-09T05:51:27;6.30;99.90
25360;DHT22;13311;51.386;0.016;2023-03-09T05:56:29;6.30;99.90
25360;DHT22;13311;51.386;0.016;2023-03-09T06:01:30;6.30;99.90
25360;DHT22;13311;51.386;0.016;2023-03-09T06:06:31;6.30;99.90
25360;DHT22;13311;51.386;0.016;2023-03-09T06:11:32;6.30;99.90
25360;DHT22;13311;51.386;0.016;2023-03-09T06:16:33;6.40;99.90
25360;DHT22;13311;51.386;0.016;2023-03-09T06:21:34;6.40;99.90
25360;DHT22;13311;51.386;0.016;2023-03-09T06:26:35;6.30;99.90
25360;DHT22;13311;51.386;0.016;2023-03-09T06:31:36;6.30;99.90
25360;DHT22;13311;51.386;0.016;2023-03-09T06:36:37;6.40;99.90
25360;DHT22;13311;51.386;0.016;2023-03-09T06:41:37;6.50;99.90
25360;DHT22;13311;51.386;0.016;2023-03-09T06:46:38;6.50;99.90
25360;DHT22;13311;51.386;0.016;2023-03-09T06:51:39;6.60;99.90
25360;DHT22;13311;51.386;0.016;2023-03-09T06:56:40;6.40;99.90
25360;DHT22;13311;51.386;0.016;2023-03-09T07:01:41;6.30;99.90
25360;DHT22;13311;51.386;0.016;2023-03-09T07:06:42;6.20;99.90
25360;DHT22;13311;51.386;0.016;2023-03-09T07:11:43;6.30;99.90
25360;DHT22;13311;51.386;0.016;2023-03-09T07:16:50;6.30;99.90
25360;DHT22;13311;51.386;0.016;2023-03-09T07:21:54;6.20;99.90
25360;DHT22;13311;51.386;0.016;2023-03-09T07:26:55;6.20;99.90
25360;DHT22;13311;51.386;0.016;2023-03-09T07:31:55;6.10;99.90
25360;DHT22;13311;51.386;0.016;2023-03-09T07:36:56;6.30;99.90
25360;DHT22;13311;51.386;0.016;2023-03-09T07:41:57;6.40;99.90
25360;DHT22;13311;51.386;0.016;2023-03-09T07:46:58;6.40;99.90
25360;DHT22;13311;51.386;0.016;2023-03-09T07:51:58;6.40;99.90
25360;DHT22;13311;51.386;0.016;2023-03-09T07:56:59;6.50;99.90
25360;DHT22;13311;51.386;0.016;2023-03-09T08:02:00;6.40;99.90
25360;DHT22;13311;51.386;0.016;2023-03-09T08:07:00;6.30;99.90
25360;DHT22;13311;51.386;0.016;2023-03-09T08:12:02;6.30;99.90
25360;DHT22;13311;51.386;0.016;2023-03-09T08:17:03;6.30;99.90
25360;DHT22;13311;51.386;0.016;2023-03-09T08:22:04;6.30;99.90
25360;DHT22;13311;51.386;0.016;2023-03-09T08:27:05;6.30;99.90
25360;DHT22;13311;51.386;0.016;2023-03-09T08:32:07;6.40;99.90
25360;DHT22;13311;51.386;0.016;2023-03-09T08:37:09;6.50;99.90
25360;DHT22;13311;51.386;0.016;2023-03-09T08:42:10;6.60;99.90
25360;DHT22;13311;51.386;0.016;2023-03-09T08:47:11;6.60;99.90
25360;DHT22;13311;51.386;0.016;2023-03-09T08:52:12;6.70;99.90
25360;DHT22;13311;51.386;0.016;2023-03-09T08:57:13;6.70;99.90
25360;DHT22;13311;51.386;0.016;2023-03-09T09:02:14;6.80;99.90
25360;DHT22;13311;51.386;0.016;2023-03-09T09:07:15;6.80;99.90
25360;DHT22;13311;51.386;0.016;2023-03-09T09:12:16;6.70;99.90
25360;DHT22;13311;51.386;0.016;2023-03-09T09:17:17;6.80;99.90
25360;DHT22;13311;51.386;0.016;2023-03-09T09:22:17;6.80;99.90
25360;DHT22;13311;51.386;0.016;2023-03-09T09:27:18;6.70;99.90
25360;DHT22;13311;51.386;0.016;2023-03-09T09:32:20;6.80;99.90
25360;DHT22;13311;51.386;0.016;2023-03-09T09:37:21;6.80;99.90
25360;DHT22;13311;51.386;0.016;2023-03-09T09:42:35;6.80;99.90
25360;DHT22;13311;51.386;0.016;2023-03-09T09:47:38;6.70;99.90
25360;DHT22;13311;51.386;0.016;2023-03-09T09:52:46;6.80;99.90
25360;DHT22;13311;51.386;0.016;2023-03-09T10:03:38;6.80;99.90
25360;DHT22;13311;51.386;0.016;2023-03-09T10:09:02;6.90;99.90
25360;DHT22;13311;51.386;0.016;2023-03-09T10:19:34;7.20;99.90
25360;DHT22;13311;51.386;0.016;2023-03-09T10:24:41;7.20;99.90
25360;DHT22;13311;51.386;0.016;2023-03-09T10:35:19;7.50;99.90
25360;DHT22;13311;51.386;0.016;2023-03-09T10:40:42;7.70;99.90
25360;DHT22;13311;51.386;0.016;2023-03-09T10:45:48;7.70;99.90
25360;DHT22;13311;51.386;0.016;2023-03-09T10:51:00;7.90;99.90
25360;DHT22;13311;51.386;0.016;2023-03-09T10:56:26;8.10;99.90
25360;DHT22;13311;51.386;0.016;2023-03-09T11:01:28;8.30;99.90
25360;DHT22;13311;51.386;0.016;2023-03-09T11:06:33;8.30;99.90
25360;DHT22;13311;51.386;0.016;2023-03-09T11:11:36;8.50;99.90
25360;DHT22;13311;51.386;0.016;2023-03-09T11:16:55;8.60;99.90
25360;DHT22;13311;51.386;0.016;2023-03-09T11:22:00;8.90;99.90
25360;DHT22;13311;51.386;0.016;2023-03-09T11:27:14;9.00;99.90
25360;DHT22;13311;51.386;0.016;2023-03-09T11:32:17;8.90;99.90
25360;DHT22;13311;51.386;0.016;2023-03-09T11:37:27;9.10;99.90
25360;DHT22;13311;51.386;0.016;2023-03-09T11:48:28;9.30;99.90
25360;DHT22;13311;51.386;0.016;2023-03-09T11:53:37;9.40;99.90
25360;DHT22;13311;51.386;0.016;2023-03-09T11:58:42;9.60;99.90
25360;DHT22;13311;51.386;0.016;2023-03-09T12:03:54;9.60;99.90
25360;DHT22;13311;51.386;0.016;2023-03-09T12:09:04;9.80;99.90
25360;DHT22;13311;51.386;0.016;2023-03-09T12:14:22;9.90;99.90
25360;DHT22;13311;51.386;0.016;2023-03-09T12:19:30;10.10;99.90
25360;DHT22;13311;51.386;0.016;2023-03-09T12:24:43;10.40;99.90
25360;DHT22;13311;51.386;0.016;2023-03-09T12:34:56;10.70;99.90
25360;DHT22;13311;51.386;0.016;2023-03-09T12:40:00;10.90;99.90
25360;DHT22;13311;51.386;0.016;2023-03-09T12:45:29;11.10;99.90
25360;DHT22;13311;51.386;0.016;2023-03-09T13:11:36;12.10;99.90
25360;DHT22;13311;51.386;0.016;2023-03-09T13:32:29;12.30;99.90
25360;DHT22;13311;51.386;0.016;2023-03-09T13:37:35;12.40;99.90
25360;DHT22;13311;51.386;0.016;2023-03-09T13:42:39;12.50;99.90
25360;DHT22;13311;51.386;0.016;2023-03-09T13:47:40;12.60;99.90
25360;DHT22;13311;51.386;0.016;2023-03-09T13:53:20;12.60;99.90
25360;DHT22;13311;51.386;0.016;2023-03-09T13:58:20;12.70;99.90
25360;DHT22;13311;51.386;0.016;2023-03-09T14:03:28;12.80;99.90
25360;DHT22;13311;51.386;0.016;2023-03-09T14:08:40;12.90;99.90
25360;DHT22;13311;51.386;0.016;2023-03-09T14:19:04;13.00;99.90
25360;DHT22;13311;51.386;0.016;2023-03-09T14:39:27;13.10;99.90
25360;DHT22;13311;51.386;0.016;2023-03-09T14:44:37;13.20;99.90
25360;DHT22;13311;51.386;0.016;2023-03-09T14:49:39;13.10;99.90
25360;DHT22;13311;51.386;0.016;2023-03-09T14:54:41;13.20;99.90
25360;DHT22;13311;51.386;0.016;2023-03-09T14:59:42;13.20;99.90
25360;DHT22;13311;51.386;0.016;2023-03-09T15:04:45;13.10;99.90
25360;DHT22;13311;51.386;0.016;2023-03-09T15:09:46;13.20;99.90
25360;DHT22;13311;51.386;0.016;2023-03-09T15:14:48;13.10;99.90
25360;DHT22;13311;51.386;0.016;2023-03-09T15:19:50;13.20;99.90
25360;DHT22;13311;51.386;0.016;2023-03-09T15:24:51;13.20;99.90
25360;DHT22;13311;51.386;0.016;2023-03-09T15:29:51;13.20;99.90
25360;DHT22;13311;51.386;0.016;2023-03-09T15:34:52;13.40;99.90
25360;DHT22;13311;51.386;0.016;2023-03-09T15:39:53;13.40;99.90
25360;DHT22;13311;51.386;0.016;2023-03-09T15:44:54;13.30;99.90
25360;DHT22;13311;51.386;0.016;2023-03-09T15:49:54;13.30;99.90
25360;DHT22;13311;51.386;0.016;2023-03-09T15:54:55;13.20;99.90
25360;DHT22;13311;51.386;0.016;2023-03-09T15:59:56;13.20;99.90
25360;DHT22;13311;51.386;0.016;2023-03-09T16:04:57;13.20;99.90
25360;DHT22;13311;51.386;0.016;2023-03-09T16:09:58;13.20;99.90
25360;DHT22;13311;51.386;0.016;2023-03-09T16:14:59;13.00;99.90
25360;DHT22;13311;51.386;0.016;2023-03-09T16:20:00;12.90;99.90
25360;DHT22;13311;51.386;0.016;2023-03-09T16:25:01;12.80;99.90
25360;DHT22;13311;51.386;0.016;2023-03-09T16:30:02;12.80;99.90
25360;DHT22;13311;51.386;0.016;2023-03-09T16:35:08;12.60;99.90
25360;DHT22;13311;51.386;0.016;2023-03-09T16:40:11;12.70;99.90
25360;DHT22;13311;51.386;0.016;2023-03-09T16:45:14;12.70;99.90
25360;DHT22;13311;51.386;0.016;2023-03-09T16:50:17;12.70;99.90
25360;DHT22;13311;51.386;0.016;2023-03-09T16:55:20;12.70;99.90
25360;DHT22;13311;51.386;0.016;2023-03-09T17:00:25;12.60;99.90
25360;DHT22;13311;51.386;0.016;2023-03-09T17:05:25;12.60;99.90
25360;DHT22;13311;51.386;0.016;2023-03-09T17:10:26;12.60;99.90
25360;DHT22;13311;51.386;0.016;2023-03-09T17:15:27;12.60;99.90
25360;DHT22;13311;51.386;0.016;2023-03-09T17:20:28;12.60;99.90
25360;DHT22;13311;51.386;0.016;2023-03-09T17:25:29;12.50;99.90
25360;DHT22;13311;51.386;0.016;2023-03-09T17:30:29;12.40;99.90
25360;DHT22;13311;51.386;0.016;2023-03-09T17:35:30;12.40;99.90
25360;DHT22;13311;51.386;0.016;2023-03-09T17:40:31;12.40;99.90
25360;DHT22;13311;51.386;0.016;2023-03-09T17:45:31;12.40;99.90
25360;DHT22;13311;51.386;0.016;2023-03-09T17:50:33;12.30;99.90
25360;DHT22;13311;51.386;0.016;2023-03-09T17:55:38;12.30;99.90
25360;DHT22;13311;51.386;0.016;2023-03-09T18:00:40;12.40;99.90
25360;DHT22;13311;51.386;0.016;2023-03-09T18:05:40;12.30;99.90
25360;DHT22;13311;51.386;0.016;2023-03-09T18:10:41;12.20;99.90
25360;DHT22;13311;51.386;0.016;2023-03-09T18:15:42;12.30;99.90
25360;DHT22;13311;51.386;0.016;2023-03-09T18:20:43;12.30;99.90
25360;DHT22;13311;51.386;0.016;2023-03-09T18:25:44;12.30;99.90
25360;DHT22;13311;51.386;0.016;2023-03-09T18:30:45;12.30;99.90
25360;DHT22;13311;51.386;0.016;2023-03-09T18:35:46;12.30;99.90
25360;DHT22;13311;51.386;0.016;2023-03-09T18:40:47;12.30;99.90
25360;DHT22;13311;51.386;0.016;2023-03-09T18:45:47;12.30;99.90
25360;DHT22;13311;51.386;0.016;2023-03-09T18:50:52;12.30;99.90
25360;DHT22;13311;51.386;0.016;2023-03-09T18:55:57;12.30;99.90
25360;DHT22;13311;51.386;0.016;2023-03-09T19:01:09;12.30;99.90
25360;DHT22;13311;51.386;0.016;2023-03-09T19:06:17;12.40;99.90
25360;DHT22;13311;51.386;0.016;2023-03-09T19:11:22;12.40;99.90
25360;DHT22;13311;51.386;0.016;2023-03-09T19:16:23;12.30;99.90
25360;DHT22;13311;51.386;0.016;2023-03-09T19:21:23;12.30;99.90
25360;DHT22;13311;51.386;0.016;2023-03-09T19:26:25;12.20;99.90
25360;DHT22;13311;51.386;0.016;2023-03-09T19:31:28;12.10;99.90
25360;DHT22;13311;51.386;0.016;2023-03-09T19:36:31;12.20;99.90
25360;DHT22;13311;51.386;0.016;2023-03-09T19:41:33;12.20;99.90
25360;DHT22;13311;51.386;0.016;2023-03-09T19:46:37;12.20;99.90
25360;DHT22;13311;51.386;0.016;2023-03-09T19:51:38;12.10;99.90
25360;DHT22;13311;51.386;0.016;2023-03-09T19:56:40;12.10;99.90
25360;DHT22;13311;51.386;0.016;2023-03-09T20:01:46;12.00;99.90
25360;DHT22;13311;51.386;0.016;2023-03-09T20:06:50;11.90;99.90
25360;DHT22;13311;51.386;0.016;2023-03-09T20:11:53;11.90;99.90
25360;DHT22;13311;51.386;0.016;2023-03-09T20:16:54;11.90;99.90
25360;DHT22;13311;51.386;0.016;2023-03-09T20:21:56;11.90;99.90
25360;DHT22;13311;51.386;0.016;2023-03-09T20:26:57;11.90;99.90
25360;DHT22;13311;51.386;0.016;2023-03-09T20:31:58;11.90;99.90
25360;DHT22;13311;51.386;0.016;2023-03-09T20:36:59;11.80;99.90
25360;DHT22;13311;51.386;0.016;2023-03-09T20:42:00;11.70;99.90
25360;DHT22;13311;51.386;0.016;2023-03-09T20:47:01;11.80;99.90
25360;DHT22;13311;51.386;0.016;2023-03-09T20:52:01;11.70;99.90
25360;DHT22;13311;51.386;0.016;2023-03-09T20:57:02;11.70;99.90
25360;DHT22;13311;51.386;0.016;2023-03-09T21:02:03;11.70;99.90
25360;DHT22;13311;51.386;0.016;2023-03-09T21:07:04;11.60;99.90
25360;DHT22;13311;51.386;0.016;2023-03-09T21:12:05;11.60;99.90
25360;DHT22;13311;51.386;0.016;2023-03-09T21:17:06;11.60;99.90
25360;DHT22;13311;51.386;0.016;2023-03-09T21:22:07;11.50;99.90
25360;DHT22;13311;51.386;0.016;2023-03-09T21:27:08;11.50;99.90
25360;DHT22;13311;51.386;0.016;2023-03-09T21:32:09;11.50;99.90
25360;DHT22;13311;51.386;0.016;2023-03-09T21:37:10;11.50;99.90
25360;DHT22;13311;51.386;0.016;2023-03-09T21:42:11;11.50;99.90
25360;DHT22;13311;51.386;0.016;2023-03-09T21:47:12;11.50;99.90
25360;DHT22;13311;51.386;0.016;2023-03-09T21:52:13;11.50;99.90
25360;DHT22;13311;51.386;0.016;2023-03-09T21:57:16;11.50;99.90
25360;DHT22;13311;51.386;0.016;2023-03-09T22:02:17;11.50;99.90
25360;DHT22;13311;51.386;0.016;2023-03-09T22:07:18;11.60;99.90
25360;DHT22;13311;51.386;0.016;2023-03-09T22:12:19;11.60;99.90
25360;DHT22;13311;51.386;0.016;2023-03-09T22:17:20;11.70;99.90
25360;DHT22;13311;51.386;0.016;2023-03-09T22:22:20;11.70;99.90
25360;DHT22;13311;51.386;0.016;2023-03-09T22:27:21;11.70;99.90
25360;DHT22;13311;51.386;0.016;2023-03-09T22:32:22;11.70;99.90
25360;DHT22;13311;51.386;0.016;2023-03-09T22:37:22;11.80;99.90
25360;DHT22;13311;51.386;0.016;2023-03-09T22:42:23;11.80;99.90
25360;DHT22;13311;51.386;0.016;2023-03-09T22:47:24;11.90;99.90
25360;DHT22;13311;51.386;0.016;2023-03-09T22:52:25;11.90;99.90
25360;DHT22;13311;51.386;0.016;2023-03-09T22:57:26;11.90;99.90
25360;DHT22;13311;51.386;0.016;2023-03-09T23:02:31;11.90;99.90
25360;DHT22;13311;51.386;0.016;2023-03-09T23:07:32;11.90;99.90
25360;DHT22;13311;51.386;0.016;2023-03-09T23:12:33;11.90;99.90
25360;DHT22;13311;51.386;0.016;2023-03-09T23:17:34;11.90;99.90
25360;DHT22;13311;51.386;0.016;2023-03-09T23:22:35;12.10;99.90
25360;DHT22;13311;51.386;0.016;2023-03-09T23:27:35;12.10;99.90
25360;DHT22;13311;51.386;0.016;2023-03-09T23:32:38;12.10;99.90
25360;DHT22;13311;51.386;0.016;2023-03-09T23:37:40;12.10;99.90
25360;DHT22;13311;51.386;0.016;2023-03-09T23:42:41;12.10;99.90
25360;DHT22;13311;51.386;0.016;2023-03-09T23:47:42;12.10;99.90
25360;DHT22;13311;51.386;0.016;2023-03-09T23:52:43;12.00;99.90
25360;DHT22;13311;51.386;0.016;2023-03-09T23:57:43;12.10;99.90
